createdAt,value
2023-02-22T00:02:27.262Z,100461.38
2023-02-22T00:04:55.568Z,100466.37
2023-02-22T00:07:24.058Z,100467.12
2023-02-22T00:09:52.665Z,100467.64
2023-02-22T00:12:21.366Z,100467.89
2023-02-22T00:14:51.599Z,100466.98
2023-02-22T00:17:20.858Z,100470.32
2023-02-22T00:19:50.853Z,100466.40
2023-02-22T00:22:19.850Z,100464.67
2023-02-22T00:25:07.122Z,100466.79
2023-02-22T00:27:36.123Z,100464.96
2023-02-22T00:30:07.602Z,100471.34
2023-02-22T00:32:39.621Z,100471.48
2023-02-22T00:35:09.763Z,100473.91
2023-02-22T00:37:42.113Z,100466.19
2023-02-22T00:40:11.845Z,100466.40
2023-02-22T00:42:40.189Z,100479.44
2023-02-22T00:45:09.387Z,100483.94
2023-02-22T00:47:37.882Z,100487.31
2023-02-22T00:50:06.572Z,100490.89
2023-02-22T00:52:36.380Z,100489.98
2023-02-22T00:55:07.835Z,100493.11
2023-02-22T00:57:37.007Z,100505.54
2023-02-22T01:00:12.341Z,100506.78
2023-02-22T01:02:42.465Z,100510.18
2023-02-22T01:05:16.543Z,100520.64
2023-02-22T01:07:46.470Z,100525.61
2023-02-22T01:10:19.652Z,100525.92
2023-02-22T01:12:50.252Z,100532.19
2023-02-22T01:15:23.603Z,100528.63
2023-02-22T01:17:53.885Z,100529.89
2023-02-22T01:20:29.513Z,100530.10
2023-02-22T01:22:58.991Z,100532.48
2023-02-22T01:25:29.191Z,100534.73
2023-02-22T01:27:58.814Z,100537.46
2023-02-22T01:30:30.490Z,100534.22
2023-02-22T01:32:59.043Z,100529.73
2023-02-22T01:35:29.705Z,100523.49
2023-02-22T01:37:58.565Z,100525.92
2023-02-22T01:40:38.248Z,100522.83
2023-02-22T01:43:30.018Z,100516.20
2023-02-22T01:46:01.617Z,100517.88
2023-02-22T01:48:49.770Z,100515.33
2023-02-22T01:51:20.545Z,100516.11
2023-02-22T01:54:09.820Z,100518.20
2023-02-22T01:56:38.986Z,100528.74
2023-02-22T01:59:10.182Z,100533.13
2023-02-22T02:01:43.293Z,100538.27
2023-02-22T02:04:18.423Z,100543.63
2023-02-22T02:06:49.182Z,100548.64
2023-02-22T02:09:55.879Z,100546.93
2023-02-22T02:12:25.237Z,100555.56
2023-02-22T02:14:54.276Z,100557.79
2023-02-22T02:17:22.933Z,100555.27
2023-02-22T02:20:13.576Z,100559.91
2023-02-22T02:22:46.567Z,100562.85
2023-02-22T02:25:33.899Z,100565.54
2023-02-22T02:28:10.388Z,100567.41
2023-02-22T02:31:21.352Z,100566.00
2023-02-22T02:34:47.069Z,100567.84
2023-02-22T02:37:33.485Z,100571.90
2023-02-22T02:40:14.315Z,100583.12
2023-02-22T02:42:54.973Z,100587.00
2023-02-22T02:45:35.290Z,100597.17
2023-02-22T02:48:03.963Z,100606.67
2023-02-22T02:50:38.282Z,100601.86
2023-02-22T02:53:08.395Z,100610.98
2023-02-22T02:55:37.436Z,100598.85
2023-02-22T02:58:06.656Z,100602.16
2023-02-22T03:00:40.818Z,100600.51
2023-02-22T03:03:37.748Z,100603.69
2023-02-22T03:06:37.090Z,100611.05
2023-02-22T03:09:35.814Z,100609.61
2023-02-22T03:12:32.721Z,100615.30
2023-02-22T03:15:44.066Z,100621.52
2023-02-22T03:18:18.116Z,100625.96
2023-02-22T03:21:18.698Z,100632.23
2023-02-22T03:23:59.476Z,100633.36
2023-02-22T03:27:04.506Z,100630.91
2023-02-22T03:29:35.936Z,100628.34
2023-02-22T03:32:07.414Z,100635.43
2023-02-22T03:34:44.325Z,100641.63
2023-02-22T03:37:22.281Z,100637.95
2023-02-22T03:39:52.997Z,100640.66
2023-02-22T03:42:24.227Z,100641.73
2023-02-22T03:44:54.024Z,100634.77
2023-02-22T03:47:40.359Z,100640.92
2023-02-22T03:50:10.560Z,100636.54
2023-02-22T03:52:39.260Z,100638.45
2023-02-22T03:55:12.172Z,100632.71
2023-02-22T03:57:42.469Z,100646.02
2023-02-22T04:00:12.498Z,100651.71
2023-02-22T04:02:45.407Z,100650.55
2023-02-22T04:05:17.439Z,100650.36
2023-02-22T04:07:46.326Z,100651.85
2023-02-22T04:10:16.441Z,100646.46
2023-02-22T04:12:46.254Z,100651.31
2023-02-22T04:15:21.429Z,100662.18
2023-02-22T04:17:52.637Z,100667.63
2023-02-22T04:20:25.801Z,100678.84
2023-02-22T04:23:00.558Z,100679.77
2023-02-22T04:25:30.598Z,100675.99
2023-02-22T04:27:59.556Z,100685.26
2023-02-22T04:30:46.270Z,100688.73
2023-02-22T04:33:17.423Z,100685.98
2023-02-22T04:35:46.205Z,100686.73
2023-02-22T04:38:15.548Z,100679.55
2023-02-22T04:40:44.058Z,100682.85
2023-02-22T04:43:15.474Z,100699.59
2023-02-22T04:45:44.872Z,100693.66
2023-02-22T04:48:13.601Z,100700.46
2023-02-22T04:50:44.025Z,100714.58
2023-02-22T04:53:12.920Z,100717.14
2023-02-22T04:55:41.377Z,100715.39
2023-02-22T04:58:10.111Z,100717.52
2023-02-22T05:00:41.355Z,100719.62
2023-02-22T05:03:09.762Z,100725.23
2023-02-22T05:05:38.442Z,100727.14
2023-02-22T05:08:06.843Z,100740.32
2023-02-22T05:10:38.588Z,100746.13
2023-02-22T05:13:07.326Z,100759.23
2023-02-22T05:15:35.920Z,100762.80
2023-02-22T05:18:05.214Z,100770.16
2023-02-22T05:20:34.939Z,100777.35
2023-02-22T05:23:03.508Z,100782.55
2023-02-22T05:25:34.772Z,100785.40
2023-02-22T05:28:05.440Z,100790.70
2023-02-22T05:30:35.572Z,100790.05
2023-02-22T05:33:03.983Z,100789.55
2023-02-22T05:35:32.801Z,100794.77
2023-02-22T05:38:03.400Z,100796.95
2023-02-22T05:40:33.340Z,100805.62
2023-02-22T05:43:02.985Z,100814.14
2023-02-22T05:45:32.470Z,100818.67
2023-02-22T05:48:01.382Z,100817.56
2023-02-22T05:50:30.755Z,100825.16
2023-02-22T05:52:59.442Z,100826.31
2023-02-22T05:55:27.810Z,100833.30
2023-02-22T05:57:56.188Z,100841.07
2023-02-22T06:00:27.027Z,100842.88
2023-02-22T06:02:56.655Z,100851.23
2023-02-22T06:05:25.773Z,100852.17
2023-02-22T06:07:54.334Z,100858.98
2023-02-22T06:10:22.750Z,100855.09
2023-02-22T06:12:51.245Z,100862.06
2023-02-22T06:15:21.610Z,100870.73
2023-02-22T06:17:50.019Z,100882.33
2023-02-22T06:20:21.500Z,100884.95
2023-02-22T06:22:54.401Z,100884.95
2023-02-22T06:25:26.080Z,100881.33
2023-02-22T06:27:54.625Z,100880.17
2023-02-22T06:30:24.135Z,100891.75
2023-02-22T06:32:52.528Z,100886.46
2023-02-22T06:35:22.008Z,100889.52
2023-02-22T06:37:50.302Z,100899.48
2023-02-22T06:40:19.291Z,100899.39
2023-02-22T06:42:50.138Z,100906.59
2023-02-22T06:45:19.807Z,100904.77
2023-02-22T06:47:49.877Z,100906.23
2023-02-22T06:50:29.552Z,100903.70
2023-02-22T06:52:58.476Z,100910.21
2023-02-22T06:55:31.916Z,100912.77
2023-02-22T06:58:01.121Z,100916.81
2023-02-22T07:00:30.858Z,100912.70
2023-02-22T07:02:59.507Z,100917.62
2023-02-22T07:05:31.775Z,100918.33
2023-02-22T07:08:07.197Z,100911.01
2023-02-22T07:10:38.152Z,100903.52
2023-02-22T07:13:09.618Z,100901.31
2023-02-22T07:15:39.648Z,100907.91
2023-02-22T07:18:08.353Z,100904.96
2023-02-22T07:20:39.438Z,100908.08
2023-02-22T07:23:09.446Z,100908.04
2023-02-22T07:25:37.826Z,100907.67
2023-02-22T07:28:07.203Z,100906.52
2023-02-22T07:30:39.358Z,100903.58
2023-02-22T07:33:09.081Z,100914.12
2023-02-22T07:35:48.120Z,100900.50
2023-02-22T07:38:22.037Z,100900.41
2023-02-22T07:40:50.892Z,100913.42
2023-02-22T07:43:27.182Z,100900.21
2023-02-22T07:45:57.187Z,100899.98
2023-02-22T07:48:28.816Z,100902.65
2023-02-22T07:50:58.185Z,100897.77
2023-02-22T07:53:30.472Z,100900.24
2023-02-22T07:56:01.037Z,100905.45
2023-02-22T07:58:32.079Z,100911.92
2023-02-22T08:01:04.525Z,100913.55
2023-02-22T08:03:37.018Z,100915.69
2023-02-22T08:06:07.523Z,100919.55
2023-02-22T08:08:36.968Z,100921.19
2023-02-22T08:11:06.172Z,100912.91
2023-02-22T08:13:37.710Z,100914.79
2023-02-22T08:16:06.679Z,100911.43
2023-02-22T08:18:38.476Z,100910.46
2023-02-22T08:21:08.065Z,100912.32
2023-02-22T08:23:39.198Z,100913.77
2023-02-22T08:26:09.629Z,100920.09
2023-02-22T08:28:39.827Z,100912.48
2023-02-22T08:31:10.173Z,100922.02
2023-02-22T08:33:38.826Z,100915.09
2023-02-22T08:36:08.596Z,100929.49
2023-02-22T08:38:39.058Z,100930.98
2023-02-22T08:41:08.609Z,100918.55
2023-02-22T08:43:37.854Z,100930.92
2023-02-22T08:46:06.879Z,100932.93
2023-02-22T08:48:36.765Z,100930.45
2023-02-22T08:51:05.697Z,100929.41
2023-02-22T08:53:35.203Z,100936.66
2023-02-22T08:56:04.193Z,100936.45
2023-02-22T08:58:32.694Z,100937.44
2023-02-22T09:01:01.781Z,100936.05
2023-02-22T09:03:30.274Z,100932.80
2023-02-22T09:05:59.840Z,100936.68
2023-02-22T09:08:31.713Z,100935.44
2023-02-22T09:11:00.476Z,100938.98
2023-02-22T09:13:28.827Z,100953.86
2023-02-22T09:15:57.246Z,100938.40
2023-02-22T09:18:30.554Z,100935.38
2023-02-22T09:21:06.175Z,100928.06
2023-02-22T09:23:35.251Z,100957.83
2023-02-22T09:26:08.114Z,100967.92
2023-02-22T09:28:36.974Z,100953.00
2023-02-22T09:31:05.794Z,100953.55
2023-02-22T09:33:35.750Z,100957.16
2023-02-22T09:36:07.084Z,100962.42
2023-02-22T09:38:36.580Z,100961.83
2023-02-22T09:41:14.856Z,100969.27
2023-02-22T09:44:16.873Z,100952.98
2023-02-22T09:46:46.180Z,100948.95
2023-02-22T09:49:31.466Z,100940.89
2023-02-22T09:52:05.373Z,100935.84
2023-02-22T09:54:38.566Z,100940.07
2023-02-22T09:57:40.902Z,100940.66
2023-02-22T10:00:18.495Z,100942.75
2023-02-22T10:02:47.318Z,100937.46
2023-02-22T10:05:28.468Z,100946.20
2023-02-22T10:08:06.180Z,100952.39
2023-02-22T10:10:39.437Z,100954.66
2023-02-22T10:13:14.322Z,100953.64
2023-02-22T10:15:51.743Z,100944.98
2023-02-22T10:19:08.218Z,100947.80
2023-02-22T10:22:14.195Z,100945.63
2023-02-22T10:24:57.894Z,100948.04
2023-02-22T10:27:49.502Z,100949.52
2023-02-22T10:30:25.440Z,100940.15
2023-02-22T10:33:17.856Z,100940.64
2023-02-22T10:35:47.155Z,100937.46
2023-02-22T10:38:32.594Z,100933.64
2023-02-22T10:41:04.236Z,100941.41
2023-02-22T10:43:33.577Z,100936.80
2023-02-22T10:46:05.143Z,100931.65
2023-02-22T10:48:37.480Z,100938.30
2023-02-22T10:51:08.729Z,100929.66
2023-02-22T10:53:38.675Z,100928.57
2023-02-22T10:56:13.268Z,100934.34
2023-02-22T10:59:03.109Z,100927.58
2023-02-22T11:01:32.050Z,100926.17
2023-02-22T11:04:05.574Z,100929.61
2023-02-22T11:06:35.013Z,100924.50
2023-02-22T11:09:11.110Z,100921.55
2023-02-22T11:11:43.641Z,100928.13
2023-02-22T11:14:13.927Z,100928.58
2023-02-22T11:16:47.827Z,100930.48
2023-02-22T11:19:16.693Z,100928.35
2023-02-22T11:21:45.383Z,100927.86
2023-02-22T11:24:14.586Z,100928.59
2023-02-22T11:26:44.898Z,100932.38
2023-02-22T11:29:27.776Z,100934.31
2023-02-22T11:31:56.246Z,100941.02
2023-02-22T11:34:27.861Z,100942.78
2023-02-22T11:36:56.810Z,100940.97
2023-02-22T11:39:35.799Z,100947.70
2023-02-22T11:42:25.092Z,100938.53
2023-02-22T11:45:13.218Z,100940.17
2023-02-22T11:47:55.720Z,100941.89
2023-02-22T11:50:40.749Z,100942.97
2023-02-22T11:53:22.897Z,100942.79
2023-02-22T11:56:16.131Z,100945.99
2023-02-22T11:59:29.529Z,100942.23
2023-02-22T12:02:27.516Z,100946.48
2023-02-22T12:05:08.386Z,100940.63
2023-02-22T12:07:59.049Z,100942.22
2023-02-22T12:10:43.650Z,100943.36
2023-02-22T12:13:55.974Z,100943.30
2023-02-22T12:16:31.973Z,100944.41
2023-02-22T12:19:15.409Z,100946.20
2023-02-22T12:21:45.371Z,100946.96
2023-02-22T12:24:28.017Z,100948.81
2023-02-22T12:27:00.367Z,100949.32
2023-02-22T12:29:37.787Z,100951.44
2023-02-22T12:32:18.679Z,100945.63
2023-02-22T12:34:49.180Z,100956.90
2023-02-22T12:37:30.014Z,100953.11
2023-02-22T12:40:09.621Z,100950.95
2023-02-22T12:42:48.635Z,100953.07
2023-02-22T12:45:58.347Z,100953.98
2023-02-22T12:48:36.242Z,100956.84
2023-02-22T12:51:43.302Z,100954.50
2023-02-22T12:54:18.926Z,100958.06
2023-02-22T12:56:57.918Z,100958.41
2023-02-22T12:59:30.819Z,100955.40
2023-02-22T13:02:03.462Z,100960.35
2023-02-22T13:04:34.902Z,100962.65
2023-02-22T13:07:16.451Z,100963.14
2023-02-22T13:09:51.372Z,100969.69
2023-02-22T13:12:46.008Z,100969.40
2023-02-22T13:15:20.334Z,100966.48
2023-02-22T13:18:01.575Z,100967.65
2023-02-22T13:20:43.097Z,100972.63
2023-02-22T13:23:12.793Z,100969.23
2023-02-22T13:25:57.781Z,100968.27
2023-02-22T13:28:57.749Z,100961.20
2023-02-22T13:31:30.755Z,100955.72
2023-02-22T13:34:18.134Z,100952.38
2023-02-22T13:36:49.484Z,100956.38
2023-02-22T13:39:54.952Z,100964.56
2023-02-22T13:42:35.638Z,100977.10
2023-02-22T13:45:29.926Z,100978.03
2023-02-22T13:48:04.523Z,100981.05
2023-02-22T13:50:50.774Z,100980.59
2023-02-22T13:53:23.789Z,100982.79
2023-02-22T13:55:55.410Z,100988.05
2023-02-22T13:58:24.302Z,100985.55
2023-02-22T14:00:57.540Z,100982.43
2023-02-22T14:03:34.513Z,100982.45
2023-02-22T14:06:07.284Z,100994.36
2023-02-22T14:08:36.194Z,100995.77
2023-02-22T14:11:28.333Z,101006.25
2023-02-22T14:14:01.207Z,101007.88
2023-02-22T14:16:30.800Z,101007.44
2023-02-22T14:19:06.672Z,101006.55
2023-02-22T14:21:35.979Z,101014.38
2023-02-22T14:24:09.606Z,101016.70
2023-02-22T14:26:39.736Z,101017.30
2023-02-22T14:29:17.022Z,101020.49
2023-02-22T14:31:50.284Z,101030.30
2023-02-22T14:34:22.438Z,101043.52
2023-02-22T14:37:05.398Z,101050.83
2023-02-22T14:39:44.479Z,101055.39
2023-02-22T14:42:13.387Z,101055.96
2023-02-22T14:44:53.991Z,101057.18
2023-02-22T14:47:39.994Z,101047.98
2023-02-22T14:50:27.481Z,101049.31
2023-02-22T14:53:07.904Z,101058.11
2023-02-22T14:55:48.084Z,101063.98
2023-02-22T14:58:19.292Z,101073.09
2023-02-22T15:00:50.035Z,101069.64
2023-02-22T15:03:38.644Z,101065.52
2023-02-22T15:06:20.147Z,101072.48
2023-02-22T15:09:07.360Z,101062.52
2023-02-22T15:11:36.300Z,101066.83
2023-02-22T15:14:25.118Z,101068.29
2023-02-22T15:17:00.695Z,101074.33
2023-02-22T15:19:31.453Z,101072.35
2023-02-22T15:22:00.353Z,101080.27
2023-02-22T15:24:34.010Z,101073.48
2023-02-22T15:27:06.381Z,101080.72
2023-02-22T15:29:44.702Z,101084.83
2023-02-22T15:32:34.324Z,101084.77
2023-02-22T15:35:14.870Z,101087.84
2023-02-22T15:37:47.004Z,101084.59
2023-02-22T15:40:17.875Z,101086.90
2023-02-22T15:42:53.283Z,101081.08
2023-02-22T15:45:22.611Z,101093.58
2023-02-22T15:47:54.562Z,101098.12
2023-02-22T15:50:34.052Z,101107.96
2023-02-22T15:53:27.383Z,101117.03
2023-02-22T15:56:01.241Z,101125.27
2023-02-22T15:58:32.298Z,101132.55
2023-02-22T16:01:14.480Z,101138.81
2023-02-22T16:03:45.954Z,101134.58
2023-02-22T16:06:28.787Z,101144.52
2023-02-22T16:08:59.269Z,101162.33
2023-02-22T16:11:35.295Z,101168.36
2023-02-22T16:14:07.306Z,101170.81
2023-02-22T16:16:37.165Z,101175.31
2023-02-22T16:19:27.425Z,101180.69
2023-02-22T16:22:13.510Z,101182.64
2023-02-22T16:24:42.548Z,101185.51
2023-02-22T16:27:16.577Z,101190.29
2023-02-22T16:30:29.295Z,101186.57
2023-02-22T16:32:58.399Z,101195.23
2023-02-22T16:35:29.054Z,101194.52
2023-02-22T16:38:02.731Z,101204.44
2023-02-22T16:40:34.639Z,101202.89
2023-02-22T16:43:13.091Z,101204.02
2023-02-22T16:45:42.744Z,101210.77
2023-02-22T16:48:18.827Z,101213.11
2023-02-22T16:50:50.247Z,101217.84
2023-02-22T16:53:22.974Z,101227.19
2023-02-22T16:55:57.836Z,101225.20
2023-02-22T16:58:28.074Z,101225.52
2023-02-22T17:00:57.724Z,101232.31
2023-02-22T17:03:26.389Z,101231.55
2023-02-22T17:05:55.106Z,101240.02
2023-02-22T17:08:24.774Z,101242.31
2023-02-22T17:10:56.881Z,101244.27
2023-02-22T17:13:27.226Z,101247.81
2023-02-22T17:15:56.731Z,101245.35
2023-02-22T17:18:28.935Z,101253.33
2023-02-22T17:20:57.717Z,101248.71
2023-02-22T17:23:27.817Z,101252.27
2023-02-22T17:25:57.293Z,101247.85
2023-02-22T17:28:26.166Z,101243.12
2023-02-22T17:30:59.546Z,101242.49
2023-02-22T17:33:33.311Z,101244.39
2023-02-22T17:36:08.715Z,101244.73
2023-02-22T17:38:41.817Z,101250.89
2023-02-22T17:41:13.506Z,101261.05
2023-02-22T17:43:43.145Z,101262.83
2023-02-22T17:46:12.501Z,101271.31
2023-02-22T17:48:41.386Z,101273.79
2023-02-22T17:51:11.017Z,101272.39
2023-02-22T17:53:40.160Z,101273.13
2023-02-22T17:56:10.700Z,101274.55
2023-02-22T17:58:40.867Z,101283.51
2023-02-22T18:01:44.194Z,101283.27
2023-02-22T18:04:13.368Z,101284.98
2023-02-22T18:06:44.847Z,101274.88
2023-02-22T18:09:17.925Z,101283.55
2023-02-22T18:11:46.341Z,101280.64
2023-02-22T18:14:14.981Z,101278.59
2023-02-22T18:16:47.004Z,101282.39
2023-02-22T18:19:20.992Z,101281.83
2023-02-22T18:21:53.496Z,101287.95
2023-02-22T18:24:24.436Z,101287.30
2023-02-22T18:26:53.737Z,101282.42
2023-02-22T18:29:22.843Z,101292.06
2023-02-22T18:31:53.247Z,101289.09
2023-02-22T18:34:25.154Z,101287.92
2023-02-22T18:36:53.516Z,101284.97
2023-02-22T18:39:23.186Z,101289.61
2023-02-22T18:41:52.613Z,101294.96
2023-02-22T18:44:22.627Z,101295.17
2023-02-22T18:46:51.352Z,101308.49
2023-02-22T18:49:19.878Z,101312.94
2023-02-22T18:51:48.836Z,101320.22
2023-02-22T18:54:19.937Z,101326.80
2023-02-22T18:56:48.486Z,101327.95
2023-02-22T18:59:17.021Z,101317.98
2023-02-22T19:01:49.267Z,101329.89
2023-02-22T19:04:18.883Z,101332.83
2023-02-22T19:06:48.624Z,101340.01
2023-02-22T19:09:17.768Z,101338.48
2023-02-22T19:11:48.509Z,101343.17
2023-02-22T19:14:17.747Z,101348.05
2023-02-22T19:16:46.638Z,101352.39
2023-02-22T19:19:20.831Z,101349.94
2023-02-22T19:21:49.574Z,101347.48
2023-02-22T19:24:19.088Z,101345.92
2023-02-22T19:26:50.864Z,101356.70
2023-02-22T19:29:25.069Z,101341.13
2023-02-22T19:31:54.039Z,101350.73
2023-02-22T19:34:24.858Z,101352.17
2023-02-22T19:36:53.350Z,101346.98
2023-02-22T19:41:58.342Z,101362.88
2023-02-22T19:44:27.407Z,101364.27
2023-02-22T19:47:00.319Z,101368.15
2023-02-22T19:49:30.046Z,101363.23
2023-02-22T19:51:58.864Z,101366.13
2023-02-22T19:54:27.760Z,101362.84
2023-02-22T19:56:58.196Z,101374.41
2023-02-22T19:59:27.071Z,101374.67
2023-02-22T20:01:56.185Z,101376.16
2023-02-22T20:04:30.743Z,101380.61
2023-02-22T20:07:00.298Z,101375.48
2023-02-22T20:09:48.230Z,101378.52
2023-02-22T20:12:16.589Z,101383.45
2023-02-22T20:14:46.662Z,101378.30
2023-02-22T20:17:15.687Z,101376.61
2023-02-22T20:19:44.796Z,101386.41
2023-02-22T20:22:13.618Z,101378.02
2023-02-22T20:24:43.120Z,101383.94
2023-02-22T20:27:13.142Z,101387.20
2023-02-22T20:29:41.578Z,101388.40
2023-02-22T20:32:12.183Z,101392.96
2023-02-22T20:34:44.822Z,101391.91
2023-02-22T20:37:14.617Z,101391.55
2023-02-22T20:39:44.961Z,101393.84
2023-02-22T20:42:15.744Z,101392.46
2023-02-22T20:44:45.466Z,101397.46
2023-02-22T20:47:14.211Z,101396.07
2023-02-22T20:49:44.520Z,101395.05
2023-02-22T20:52:16.378Z,101392.98
2023-02-22T20:54:46.049Z,101401.34
2023-02-22T20:57:14.963Z,101397.17
2023-02-22T20:59:44.563Z,101392.11
2023-02-22T21:02:13.202Z,101401.75
2023-02-22T21:04:41.873Z,101396.11
2023-02-22T21:07:10.174Z,101402.48
2023-02-22T21:09:40.571Z,101409.52
2023-02-22T21:12:13.769Z,101400.91
2023-02-22T21:14:44.400Z,101411.41
2023-02-22T21:17:13.129Z,101406.42
2023-02-22T21:19:42.431Z,101406.38
2023-02-22T21:22:12.530Z,101407.34
2023-02-22T21:24:42.004Z,101398.40
2023-02-22T21:27:12.413Z,101405.67
2023-02-22T21:29:41.088Z,101400.23
2023-02-22T21:32:10.529Z,101403.80
2023-02-22T21:34:39.194Z,101414.73
2023-02-22T21:37:08.501Z,101411.62
2023-02-22T21:39:40.652Z,101416.59
2023-02-22T21:42:09.171Z,101417.31
2023-02-22T21:44:37.931Z,101416.44
2023-02-22T21:47:08.029Z,101418.77
2023-02-22T21:49:38.358Z,101409.77
2023-02-22T21:52:08.008Z,101407.41
2023-02-22T21:54:37.741Z,101405.15
2023-02-22T21:57:07.013Z,101413.02
2023-02-22T21:59:35.421Z,101416.09
2023-02-22T22:02:04.317Z,101416.84
2023-02-22T22:04:35.140Z,101409.86
2023-02-22T22:07:05.327Z,101406.16
2023-02-22T22:09:37.587Z,101411.75
2023-02-22T22:12:10.817Z,101416.66
2023-02-22T22:14:42.264Z,101404.33
2023-02-22T22:17:13.022Z,101399.98
2023-02-22T22:19:44.626Z,101409.15
2023-02-22T22:22:13.305Z,101402.92
2023-02-22T22:24:45.974Z,101409.28
2023-02-22T22:27:15.273Z,101400.80
2023-02-22T22:29:43.769Z,101412.29
2023-02-22T22:32:13.925Z,101412.81
2023-02-22T22:34:44.031Z,101406.27
2023-02-22T22:37:13.400Z,101412.34
2023-02-22T22:39:42.732Z,101414.15
2023-02-22T22:42:11.417Z,101413.49
2023-02-22T22:44:42.702Z,101412.01
2023-02-22T22:47:14.447Z,101414.96
2023-02-22T22:49:43.022Z,101420.81
2023-02-22T22:52:14.142Z,101419.65
2023-02-22T22:54:47.465Z,101425.36
2023-02-22T22:57:15.783Z,101426.83
2023-02-22T22:59:44.026Z,101424.05
2023-02-22T23:02:12.838Z,101425.88
2023-02-22T23:04:41.309Z,101429.63
2023-02-22T23:07:11.415Z,101429.86
2023-02-22T23:09:41.744Z,101432.38
2023-02-22T23:12:18.056Z,101437.33
2023-02-22T23:14:52.237Z,101433.27
2023-02-22T23:17:43.942Z,101431.80
2023-02-22T23:20:13.167Z,101431.55
2023-02-22T23:22:47.389Z,101432.52
2023-02-22T23:25:19.850Z,101435.82
2023-02-22T23:27:49.617Z,101433.33
2023-02-22T23:30:22.527Z,101435.41
2023-02-22T23:32:53.357Z,101437.70
2023-02-22T23:35:21.584Z,101429.40
2023-02-22T23:37:53.142Z,101425.55
2023-02-22T23:40:21.768Z,101428.63
2023-02-22T23:42:51.531Z,101437.67
2023-02-22T23:45:23.628Z,101436.84
2023-02-22T23:47:55.248Z,101439.02
2023-02-22T23:50:26.991Z,101440.13
2023-02-22T23:52:59.782Z,101442.62
2023-02-22T23:55:31.722Z,101441.77
2023-02-22T23:58:00.112Z,101446.02
